Hayward Executive Airport


Codes: KHWD/HWD
Name: Hayward Executive Airport
City: Hayward
Country: United States
Elevation: 52 ft.
Website:
Wikipedia:

Photos at Hayward Executive Airport


   Photos courtesy of SpottingLog. You can add your own sightings and photos by signing up for a free trial today.



No photos found.

Weather at Hayward Executive Airport


Time (UTC)DescriptionTempratureWindCloud coverageVisibilityPressureHumidity
23-May-2024 21:00Clear Sky20°C9 mph, W0%10000m1013hPa46%
24-May-2024 00:00Clear Sky18°C9 mph, W1%10000m1012hPa48%
24-May-2024 03:00Broken Clouds13°C7 mph, SW51%10000m1012hPa67%
24-May-2024 06:00Broken Clouds11°C9 mph, SW75%10000m1013hPa78%
24-May-2024 09:00Overcast Clouds10°C9 mph, SW99%10000m1012hPa81%
24-May-2024 12:00Overcast Clouds11°C11 mph, SW91%10000m1012hPa79%
24-May-2024 15:00Overcast Clouds11°C13 mph, SW99%10000m1013hPa76%
24-May-2024 18:00Broken Clouds14°C11 mph, SW83%10000m1013hPa63%
24-May-2024 21:00Clear Sky16°C16 mph, W6%10000m1013hPa57%
25-May-2024 00:00Clear Sky15°C18 mph, W6%10000m1012hPa67%
25-May-2024 03:00Overcast Clouds13°C13 mph, W89%10000m1012hPa82%
25-May-2024 06:00Overcast Clouds13°C11 mph, W96%10000m1013hPa81%
25-May-2024 09:00Overcast Clouds12°C11 mph, SW100%10000m1013hPa86%
25-May-2024 12:00Light Rain12°C11 mph, SW100%10000m1013hPa86%
25-May-2024 15:00Light Rain12°C9 mph, SW99%10000m1015hPa83%
25-May-2024 18:00Overcast Clouds13°C7 mph, SW100%10000m1017hPa77%
25-May-2024 21:00Broken Clouds16°C11 mph, W62%10000m1017hPa60%
26-May-2024 00:00Scattered Clouds15°C11 mph, W30%10000m1017hPa63%
26-May-2024 03:00Clear Sky11°C7 mph, W0%10000m1017hPa74%
26-May-2024 06:00Clear Sky10°C7 mph, SW0%10000m1018hPa85%
26-May-2024 09:00Few Clouds9°C4 mph, SW17%10000m1017hPa87%
26-May-2024 12:00Scattered Clouds9°C2 mph, S27%10000m1017hPa86%
26-May-2024 15:00Clear Sky11°C4 mph, S9%10000m1018hPa74%
26-May-2024 18:00Clear Sky18°C2 mph, W4%10000m1017hPa49%
26-May-2024 21:00Clear Sky21°C9 mph, NW0%10000m1016hPa43%
27-May-2024 00:00Clear Sky18°C9 mph, W0%10000m1016hPa51%
27-May-2024 03:00Clear Sky13°C4 mph, W0%10000m1017hPa69%
27-May-2024 06:00Clear Sky10°C4 mph, SW0%10000m1018hPa85%
27-May-2024 09:00Few Clouds10°C2 mph, SW15%10000m1018hPa88%
27-May-2024 12:00Few Clouds9°C2 mph, S16%10000m1017hPa91%
27-May-2024 15:00Clear Sky12°C2 mph, S0%10000m1018hPa75%
27-May-2024 18:00Clear Sky18°C2 mph, W0%10000m1018hPa53%
27-May-2024 21:00Clear Sky21°C7 mph, W0%10000m1016hPa45%
28-May-2024 00:00Clear Sky19°C9 mph, NW0%10000m1016hPa50%
28-May-2024 03:00Clear Sky14°C7 mph, W0%10000m1017hPa72%
28-May-2024 06:00Clear Sky11°C4 mph, SW5%10000m1019hPa87%
28-May-2024 09:00Broken Clouds11°C4 mph, SW52%10000m1018hPa87%
28-May-2024 12:00Scattered Clouds11°C4 mph, S46%10000m1018hPa90%
28-May-2024 15:00Scattered Clouds13°C4 mph, SW39%10000m1019hPa78%
28-May-2024 18:00Few Clouds18°C4 mph, SW20%10000m1019hPa57%